Aeroporto :
LOGIN :

Iscrizione | Disclaimer

   EN    FR    IT 

 










Sommario :    VFR   VFR Marginale   IFR   IFR Intensivo   IFR Molto Intensivo
Visibilità : 
Base nubi : 
>= 8 km
>= 3000ft
5 / 8 km
1000 / 3000 ft
1500m / 5 km
500 / 1000 ft
800 / 1500m
200 / 500 ft
< 800m
< 200 ft
Simboli :   Temporali  Nebbia  Neve Forte  Precipitazioni Forti  Vento > 20 kt
SIGMETs :   Varie  Temporali  Ghiacco  Turbolenza  Onda orograficha  Ceneri Vulcaniche






- Altitudine del aeroporto : 53 ft
- Codice IATA : LBC


EDHL - Lübeck

ULTIMO METAR :
  • 180920Z 22011KT 9999 BKN017 04/02 Q1019

METARs OBSOLETI :
  • 180850Z 22009KT 200V260 9999 SCT018 04/01 Q1019
  • 180820Z 22010KT 9999 BKN020 05/02 Q1018
  • 180750Z 23010KT 9999 BKN018 05/02 Q1018
  • 180720Z 23013KT 9999 BKN021 05/02 Q1018
  • 180650Z 23012KT 9999 BKN024 06/02 Q1018

TAF TAF EDHL
Valido dal 18 a 09 ore il 18 a 18 ore UTC


180800Z 1809/1818 23012KT 9999 BKN020
TEMPO 1809/1813 24015G25KT
PROB40
TEMPO 1813/1816 24015G25KT 4000 SHRAGS BKN012CB
BECMG 1816/1818 24006KT



MetMap, La meteo Aeronautica in un colpo d'occhio ! - Copyright ORBIFLY Dicembre 2007 - Disclaimer

ORBIFLY MET'MAP TEAM :

Programmazione e sviluppo : Alexandra Zaïnal
Concezione : Baudouin d'Aumeries
Aiuto per la programmazione : Marc-Olivier Méhu
Supporto tecnico e logistico : Manuel Goepfert
Aiuto per la traduzione : Arnaldo La Scala

Contatto : metmap@orbifly.com




FONTI E CREDITI :

   NOAA